Licenciado Gustavo Díaz Ordaz International Airport
MMPR : now visible

Airfield :











YOU CAN JOIN US ON...

 
LOGIN :

Register | Disclaimer

   EN    FR    IT 

 









Legend :    VFR   Marginal VFR   IFR   Intensive IFR   Very Intensive IFR
Visi :
Ceiling :
>= 8 km
>= 3000ft
5 to 8 km
1000 to 3000 ft
1500m to 5 km
500 to 1000 ft
800 to 1500m
200 to 500 ft
< 800m
< 200 ft
Symbols :   Thunderstorms  Fog  Heavy snow  Heavy precipitations  Wind > 20 kt






- Airport Elevation : 23 ft
- IATA code : PVR


MMPR - Licenciado Gustavo Díaz Ordaz International

CURRENT METAR :
  • 130344Z 05005KT 8SM BKN110 OVC210 24/24 A2987 RMK 8/017 OCNL DROPS

EXPIRED METARs :
  • 130242Z 03006KT 12SM SCT110 OVC210 24/23 A2986 RMK SLP112 52021 900 8/077
  • 130152Z 01005KT 12SM SCT025CB BKN140 OVC210 24/21 A2985 RMK 60135 8/963 TSRAE30 OCNL DROPS

TAF TAF MMPR
Valid from the 13 at 00:00 until the 14 at 06:00 UTC


122326Z 1300/1406 22010KT P6SM SCT020CB BKN060 TX32/1319Z TN23/1312Z
TEMPO 1300/1303 5SM TSRA BKN020CB BKN060
FM130300 03005KT P6SM SCT020 BKN200
BECMG 1317/1318 21008KT SCT020
FM132100 21010KT P6SM SCT020
BECMG 1321/1322 BKN020
FM140300 02005KT P6SM SCT020
MMFR FIR / North America



MET'MAP, your aeronautical weather chart ! - Copyright ORBIFLY December 2007 - Disclaimer

ORBIFLY MET'MAP TEAM :

Programming & Development : Alexandra Zaïnal
Concept & original design : Baudouin d'Aumeries
Assistance for programming : Marc-Olivier Méhu
Technical & hardware support : Manuel Goepfert

Contact : metmap@orbifly.com




SOURCES & CREDITS :

   NOAA       Earth
Advisory